Time,TemperatureF,DewpointF,PressureIn,WindDirection,WindDirectionDegrees,WindSpeedMPH,WindSpeedGustMPH,Humidity,HourlyPrecipIn,Conditions,Clouds,dailyrainin,SoftwareType,DateUTC
2013-03-13 00:23:00,51.0,46.0,29.96,WSW,256,0.0,0.0,83,0.00,,,-99.99,,2013-03-13 07:23:00,
2013-03-13 00:33:00,51.0,46.0,29.96,WSW,256,0.0,0.0,83,0.00,,,-99.99,,2013-03-13 07:33:00,
2013-03-13 00:43:00,51.0,46.0,29.96,WSW,256,0.0,0.0,83,0.00,,,-99.99,,2013-03-13 07:43:00,
2013-03-13 00:52:00,50.0,45.0,29.95,WSW,256,0.0,2.0,82,0.00,,,-99.99,,2013-03-13 07:52:00,
2013-03-13 01:02:00,50.0,45.0,29.95,WSW,256,0.0,2.0,82,0.00,,,-99.99,,2013-03-13 08:02:00,
2013-03-13 01:12:00,50.0,45.0,29.95,WSW,256,0.0,2.0,82,0.00,,,-99.99,,2013-03-13 08:12:00,
2013-03-13 01:21:00,50.0,45.0,29.94,ENE,69,0.0,2.0,82,0.00,,,-99.99,,2013-03-13 08:21:00,
2013-03-13 01:31:00,50.0,45.0,29.94,ENE,69,0.0,2.0,82,0.00,,,-99.99,,2013-03-13 08:31:00,
2013-03-13 01:43:00,50.0,45.0,29.94,ENE,69,0.0,2.0,82,0.00,,,-99.99,,2013-03-13 08:43:00,
2013-03-13 01:53:00,49.0,43.0,29.94,ENE,68,0.0,0.0,80,0.00,,,-99.99,,2013-03-13 08:53:00,
2013-03-13 02:01:00,49.0,43.0,29.94,ENE,68,0.0,0.0,80,0.00,,,-99.99,,2013-03-13 09:01:00,
2013-03-13 02:12:00,49.0,43.0,29.94,ENE,68,0.0,0.0,80,0.00,,,-99.99,,2013-03-13 09:12:00,
2013-03-13 02:22:00,49.0,43.0,29.95,ENE,68,0.0,1.0,80,0.00,,,-99.99,,2013-03-13 09:22:00,
2013-03-13 02:31:00,49.0,43.0,29.95,ENE,68,0.0,1.0,80,0.00,,,-99.99,,2013-03-13 09:31:00,
2013-03-13 02:42:00,49.0,43.0,29.95,ENE,68,0.0,1.0,80,0.00,,,-99.99,,2013-03-13 09:42:00,
2013-03-13 02:52:00,49.0,44.0,29.96,ENE,68,0.0,1.0,83,0.00,,,-99.99,,2013-03-13 09:52:00,
2013-03-13 03:00:00,48.0,43.0,29.95,ENE,68,0.0,0.0,83,0.00,,,-99.99,,2013-03-13 10:00:00,
2013-03-13 03:01:00,49.0,44.0,29.96,ENE,68,0.0,1.0,83,0.00,,,-99.99,,2013-03-13 10:01:00,
2013-03-13 03:11:00,49.0,44.0,29.96,ENE,68,0.0,1.0,83,0.00,,,-99.99,,2013-03-13 10:11:00,
2013-03-13 03:22:00,48.0,43.0,29.95,ENE,68,0.0,0.0,83,0.00,,,-99.99,,2013-03-13 10:22:00,
2013-03-13 03:32:00,48.0,43.0,29.95,ENE,68,0.0,0.0,83,0.00,,,-99.99,,2013-03-13 10:32:00,
2013-03-13 03:42:00,48.0,43.0,29.95,ENE,68,0.0,0.0,83,0.00,,,-99.99,,2013-03-13 10:42:00,
2013-03-13 03:52:00,48.0,43.0,29.95,ENE,68,0.0,0.0,83,0.00,,,-99.99,,2013-03-13 10:52:00,
2013-03-13 07:52:00,45.0,40.0,29.96,ENE,68,0.0,0.0,84,0.00,,,-99.99,,2013-03-13 14:52:00,
2013-03-13 08:02:00,45.0,40.0,29.96,ENE,68,0.0,0.0,84,0.00,,,-99.99,,2013-03-13 15:02:00,
2013-03-13 08:11:00,45.0,40.0,29.96,ENE,68,0.0,0.0,84,0.00,,,-99.99,,2013-03-13 15:11:00,
2013-03-13 08:21:00,46.0,42.0,29.96,ENE,68,0.0,1.0,85,0.00,,,-99.99,,2013-03-13 15:21:00,
2013-03-13 08:32:00,46.0,42.0,29.96,ENE,68,0.0,1.0,85,0.00,,,-99.99,,2013-03-13 15:32:00,
2013-03-13 08:42:00,46.0,42.0,29.96,ENE,68,0.0,1.0,85,0.00,,,-99.99,,2013-03-13 15:42:00,
2013-03-13 10:22:00,58.0,48.0,29.98,ENE,69,0.0,1.0,69,0.00,,,-99.99,,2013-03-13 17:22:00,
2013-03-13 10:32:00,58.0,48.0,29.98,ENE,69,0.0,1.0,69,0.00,,,-99.99,,2013-03-13 17:32:00,
2013-03-13 10:42:00,58.0,48.0,29.98,ENE,69,0.0,1.0,69,0.00,,,-99.99,,2013-03-13 17:42:00,
2013-03-13 10:53:00,60.0,49.0,29.98,ENE,69,0.0,2.0,66,0.00,,,-99.99,,2013-03-13 17:53:00,
2013-03-13 11:02:00,60.0,49.0,29.98,ENE,69,0.0,2.0,66,0.00,,,-99.99,,2013-03-13 18:02:00,
2013-03-13 11:12:00,60.0,49.0,29.98,ENE,69,0.0,2.0,66,0.00,,,-99.99,,2013-03-13 18:12:00,
2013-03-13 11:21:00,60.0,49.0,29.98,ENE,69,0.0,2.0,66,0.00,,,-99.99,,2013-03-13 18:21:00,
2013-03-13 11:52:00,67.0,49.0,29.98,West,261,0.0,5.0,52,0.00,,,-99.99,,2013-03-13 18:52:00,
2013-03-13 12:02:00,67.0,49.0,29.98,West,261,0.0,5.0,52,0.00,,,-99.99,,2013-03-13 19:02:00,
2013-03-13 12:12:00,67.0,49.0,29.98,West,261,0.0,5.0,52,0.00,,,-99.99,,2013-03-13 19:12:00,
2013-03-13 12:22:00,70.0,52.0,29.97,West,281,1.0,6.0,52,0.00,,,-99.99,,2013-03-13 19:22:00,
2013-03-13 12:32:00,70.0,52.0,29.97,West,281,1.0,6.0,52,0.00,,,-99.99,,2013-03-13 19:32:00,
2013-03-13 12:42:00,70.0,52.0,29.97,West,281,1.0,6.0,52,0.00,,,-99.99,,2013-03-13 19:42:00,
2013-03-13 12:52:00,71.0,54.0,29.97,WSW,239,1.0,5.0,55,0.00,,,-99.99,,2013-03-13 19:52:00,
2013-03-13 13:02:00,71.0,54.0,29.97,WSW,239,1.0,5.0,55,0.00,,,-99.99,,2013-03-13 20:02:00,
2013-03-13 13:11:00,71.0,54.0,29.97,WSW,239,1.0,5.0,55,0.00,,,-99.99,,2013-03-13 20:11:00,
2013-03-13 13:21:00,71.0,54.0,29.97,WSW,239,1.0,5.0,55,0.00,,,-99.99,,2013-03-13 20:21:00,
2013-03-13 15:22:00,72.0,52.0,29.94,SSW,194,1.0,5.0,50,0.00,,,-99.99,,2013-03-13 22:22:00,
2013-03-13 15:32:00,72.0,52.0,29.94,SSW,194,1.0,5.0,50,0.00,,,-99.99,,2013-03-13 22:32:00,
2013-03-13 15:42:00,72.0,52.0,29.94,SSW,194,1.0,5.0,50,0.00,,,-99.99,,2013-03-13 22:42:00,
2013-03-13 15:51:00,73.0,52.0,29.94,South,175,1.0,5.0,47,0.00,,,-99.99,,2013-03-13 22:51:00,
2013-03-13 16:02:00,73.0,52.0,29.94,South,175,1.0,5.0,47,0.00,,,-99.99,,2013-03-13 23:02:00,
2013-03-13 16:12:00,73.0,52.0,29.94,South,175,1.0,5.0,47,0.00,,,-99.99,,2013-03-13 23:12:00,
2013-03-13 16:21:00,73.0,50.0,29.93,WSW,249,0.0,2.0,44,0.00,,,-99.99,,2013-03-13 23:21:00,
2013-03-13 16:32:00,73.0,50.0,29.93,WSW,249,0.0,2.0,44,0.00,,,-99.99,,2013-03-13 23:32:00,
2013-03-13 16:42:00,73.0,50.0,29.93,WSW,249,0.0,2.0,44,0.00,,,-99.99,,2013-03-13 23:42:00,
2013-03-13 16:51:00,74.0,49.0,29.92,WNW,291,1.0,5.0,41,0.00,,,-99.99,,2013-03-13 23:51:00,
2013-03-13 17:02:00,74.0,49.0,29.92,WNW,291,1.0,5.0,41,0.00,,,-99.99,,2013-03-14 00:02:00,
2013-03-13 17:12:00,74.0,49.0,29.92,WNW,291,1.0,5.0,41,0.00,,,-99.99,,2013-03-14 00:12:00,
2013-03-13 17:21:00,73.0,49.0,29.91,SW,224,0.0,4.0,43,0.00,,,-99.99,,2013-03-14 00:21:00,
2013-03-13 17:32:00,73.0,49.0,29.91,SW,224,0.0,4.0,43,0.00,,,-99.99,,2013-03-14 00:32:00,
2013-03-13 17:42:00,73.0,49.0,29.91,SW,224,0.0,4.0,43,0.00,,,-99.99,,2013-03-14 00:42:00,
2013-03-13 17:52:00,72.0,49.0,29.91,South,189,0.0,2.0,45,0.00,,,-99.99,,2013-03-14 00:52:00,
2013-03-13 18:02:00,72.0,49.0,29.91,South,189,0.0,2.0,45,0.00,,,-99.99,,2013-03-14 01:02:00,
2013-03-13 18:12:00,72.0,49.0,29.91,South,189,0.0,2.0,45,0.00,,,-99.99,,2013-03-14 01:12:00,
2013-03-13 18:21:00,70.0,49.0,29.92,West,264,0.0,4.0,48,0.00,,,-99.99,,2013-03-14 01:21:00,
2013-03-13 18:32:00,70.0,49.0,29.92,West,264,0.0,4.0,48,0.00,,,-99.99,,2013-03-14 01:32:00,
2013-03-13 18:42:00,70.0,49.0,29.92,West,264,0.0,4.0,48,0.00,,,-99.99,,2013-03-14 01:42:00,
2013-03-13 18:52:00,68.0,50.0,29.92,West,269,1.0,4.0,52,0.00,,,-99.99,,2013-03-14 01:52:00,
2013-03-13 19:02:00,68.0,50.0,29.92,West,269,1.0,4.0,52,0.00,,,-99.99,,2013-03-14 02:02:00,
2013-03-13 19:12:00,68.0,50.0,29.92,West,269,1.0,4.0,52,0.00,,,-99.99,,2013-03-14 02:12:00,
2013-03-13 19:21:00,64.0,49.0,29.92,West,273,1.0,5.0,58,0.00,,,-99.99,,2013-03-14 02:21:00,
2013-03-13 19:32:00,64.0,49.0,29.92,West,273,1.0,5.0,58,0.00,,,-99.99,,2013-03-14 02:32:00,
2013-03-13 19:42:00,64.0,49.0,29.92,West,273,1.0,5.0,58,0.00,,,-99.99,,2013-03-14 02:42:00,
2013-03-13 19:51:00,64.0,49.0,29.92,West,273,1.0,5.0,58,0.00,,,-99.99,,2013-03-14 02:51:00,
2013-03-13 20:01:00,61.0,49.0,29.93,West,269,0.0,1.0,65,0.00,,,-99.99,,2013-03-14 03:01:00,
2013-03-13 20:12:00,61.0,49.0,29.93,West,269,0.0,1.0,65,0.00,,,-99.99,,2013-03-14 03:12:00,
2013-03-13 20:22:00,58.0,50.0,29.94,West,269,0.0,1.0,74,0.00,,,-99.99,,2013-03-14 03:22:00,
2013-03-13 20:32:00,58.0,50.0,29.94,West,269,0.0,1.0,74,0.00,,,-99.99,,2013-03-14 03:32:00,
2013-03-13 20:42:00,58.0,50.0,29.94,West,269,0.0,1.0,74,0.00,,,-99.99,,2013-03-14 03:42:00,
2013-03-13 20:52:00,56.0,50.0,29.94,West,269,0.0,1.0,79,0.00,,,-99.99,,2013-03-14 03:52:00,
2013-03-13 21:12:00,56.0,50.0,29.94,West,269,0.0,1.0,79,0.00,,,-99.99,,2013-03-14 04:12:00,
2013-03-13 21:22:00,54.0,49.0,29.94,West,269,0.0,1.0,82,0.00,,,-99.99,,2013-03-14 04:22:00,
2013-03-13 21:32:00,54.0,49.0,29.94,West,269,0.0,1.0,82,0.00,,,-99.99,,2013-03-14 04:32:00,
2013-03-13 21:42:00,54.0,49.0,29.94,West,269,0.0,1.0,82,0.00,,,-99.99,,2013-03-14 04:42:00,
2013-03-13 22:22:00,52.0,48.0,29.96,West,269,0.0,0.0,85,0.00,,,-99.99,,2013-03-14 05:22:00,
2013-03-13 22:33:00,52.0,48.0,29.96,West,269,0.0,0.0,85,0.00,,,-99.99,,2013-03-14 05:33:00,
2013-03-13 22:42:00,52.0,48.0,29.96,West,269,0.0,0.0,85,0.00,,,-99.99,,2013-03-14 05:42:00,
2013-03-13 22:52:00,52.0,48.0,29.95,West,269,0.0,0.0,86,0.00,,,-99.99,,2013-03-14 05:52:00,
2013-03-13 23:02:00,52.0,48.0,29.95,West,269,0.0,0.0,86,0.00,,,-99.99,,2013-03-14 06:02:00,
2013-03-13 23:12:00,52.0,48.0,29.95,West,269,0.0,0.0,86,0.00,,,-99.99,,2013-03-14 06:12:00,
2013-03-13 23:21:00,51.0,47.0,29.95,West,269,0.0,0.0,87,0.00,,,-99.99,,2013-03-14 06:21:00,
2013-03-13 23:32:00,51.0,47.0,29.95,West,269,0.0,0.0,87,0.00,,,-99.99,,2013-03-14 06:32:00,
2013-03-13 23:42:00,51.0,47.0,29.95,West,269,0.0,0.0,87,0.00,,,-99.99,,2013-03-14 06:42:00,
2013-03-13 23:52:00,51.0,47.0,29.94,West,269,0.0,0.0,87,0.00,,,-99.99,,2013-03-14 06:52:00,